createdAt,value
2023-05-19T00:02:12.249Z,6.18
2023-05-19T00:04:47.362Z,5.25
2023-05-19T00:07:21.004Z,5.03
2023-05-19T00:09:56.157Z,4.55
2023-05-19T00:12:29.544Z,7.47
2023-05-19T00:15:03.183Z,4.75
2023-05-19T00:17:38.445Z,5.22
2023-05-19T00:20:12.981Z,5.15
2023-05-19T00:22:46.216Z,5.78
2023-05-19T00:25:20.830Z,4.93
2023-05-19T00:27:54.059Z,5.47
2023-05-19T00:30:27.383Z,4.57
2023-05-19T00:33:00.736Z,3.97
2023-05-19T00:35:34.221Z,3.03
2023-05-19T00:38:07.760Z,6.53
2023-05-19T00:40:42.413Z,7.95
2023-05-19T00:43:15.679Z,5.97
2023-05-19T00:45:49.239Z,2.95
2023-05-19T00:48:22.811Z,4.82
2023-05-19T00:51:02.083Z,5.07
2023-05-19T00:53:36.551Z,5.43
2023-05-19T00:56:11.257Z,5.35
2023-05-19T00:58:45.359Z,4.43
2023-05-19T01:01:21.453Z,6.90
2023-05-19T01:03:56.729Z,5.05
2023-05-19T01:06:30.348Z,6.03
2023-05-19T01:09:03.873Z,2.58
2023-05-19T01:11:38.487Z,4.05
2023-05-19T01:14:11.822Z,6.00
2023-05-19T01:16:51.710Z,7.40
2023-05-19T01:19:42.212Z,6.20
2023-05-19T01:22:34.259Z,4.78
2023-05-19T01:25:38.112Z,3.55
2023-05-19T01:28:27.597Z,5.43
2023-05-19T01:31:04.697Z,3.70
2023-05-19T01:33:41.051Z,2.80
2023-05-19T01:36:16.389Z,3.53
2023-05-19T01:38:53.186Z,3.90
2023-05-19T01:41:28.478Z,5.32
2023-05-19T01:44:02.084Z,4.00
2023-05-19T01:46:37.590Z,3.45
2023-05-19T01:49:10.991Z,8.38
2023-05-19T01:51:44.535Z,2.95
2023-05-19T01:54:17.845Z,3.15
2023-05-19T01:56:58.472Z,2.92
2023-05-19T01:59:43.316Z,3.88
2023-05-19T02:02:26.928Z,4.15
2023-05-19T02:05:09.940Z,3.40
2023-05-19T02:07:47.805Z,5.28
2023-05-19T02:10:27.546Z,2.95
2023-05-19T02:13:08.627Z,4.22
2023-05-19T02:15:43.826Z,3.33
2023-05-19T02:18:20.375Z,5.07
2023-05-19T02:20:57.334Z,3.97
2023-05-19T02:23:30.904Z,3.55
2023-05-19T02:26:04.248Z,2.33
2023-05-19T02:28:39.633Z,2.75
2023-05-19T02:31:12.972Z,3.63
2023-05-19T02:33:47.605Z,4.47
2023-05-19T02:36:20.867Z,4.82
2023-05-19T02:38:54.185Z,4.88
2023-05-19T02:41:27.622Z,4.07
2023-05-19T02:44:01.038Z,3.08
2023-05-19T02:46:34.602Z,3.08
2023-05-19T02:49:09.396Z,2.90
2023-05-19T02:51:42.690Z,4.78
2023-05-19T02:54:16.209Z,2.55
2023-05-19T02:56:49.500Z,3.45
2023-05-19T02:59:25.033Z,3.85
2023-05-19T03:02:01.669Z,3.53
2023-05-19T03:04:41.698Z,2.97
2023-05-19T03:07:15.667Z,3.17
2023-05-19T03:12:22.319Z,2.72
2023-05-19T03:14:55.611Z,3.30
2023-05-19T03:17:33.709Z,5.70
2023-05-19T03:20:10.859Z,4.30
2023-05-19T03:22:44.229Z,8.93
2023-05-19T03:25:18.063Z,3.65
2023-05-19T03:27:51.357Z,3.17
2023-05-19T03:30:24.598Z,4.50
2023-05-19T03:33:16.107Z,3.53
2023-05-19T03:38:24.419Z,2.92
2023-05-19T03:41:03.228Z,3.83
2023-05-19T03:43:37.703Z,2.75
2023-05-19T03:46:13.330Z,3.70
2023-05-19T03:49:03.341Z,2.70
2023-05-19T03:52:04.073Z,2.33
2023-05-19T03:54:52.990Z,2.85
2023-05-19T03:57:26.990Z,3.60
2023-05-19T04:00:00.758Z,3.17
2023-05-19T04:02:34.170Z,3.00
2023-05-19T04:05:07.903Z,2.65
2023-05-19T04:07:43.073Z,3.88
2023-05-19T04:10:16.328Z,3.17
2023-05-19T04:12:49.734Z,3.22
2023-05-19T04:15:22.999Z,2.72
2023-05-19T04:17:57.489Z,2.20
2023-05-19T04:23:05.866Z,2.50
2023-05-19T04:25:40.857Z,3.38
2023-05-19T04:28:14.745Z,2.63
2023-05-19T04:30:48.097Z,3.67
2023-05-19T04:33:21.497Z,2.67
2023-05-19T04:35:54.781Z,2.63
2023-05-19T04:38:30.032Z,2.10
2023-05-19T04:41:04.121Z,3.25
2023-05-19T04:43:42.005Z,5.07
2023-05-19T04:46:15.807Z,2.85
2023-05-19T04:48:51.272Z,4.40
2023-05-19T04:51:29.250Z,2.90
2023-05-19T04:54:07.415Z,2.80
2023-05-19T04:56:42.079Z,3.08
2023-05-19T04:59:15.511Z,4.03
2023-05-19T05:01:48.878Z,5.40
2023-05-19T05:04:24.140Z,3.78
2023-05-19T05:06:57.541Z,7.97
2023-05-19T05:09:33.041Z,5.50
2023-05-19T05:12:09.257Z,4.10
2023-05-19T05:14:45.293Z,2.95
2023-05-19T05:17:19.298Z,2.92
2023-05-19T05:19:53.067Z,3.15
2023-05-19T05:22:27.705Z,3.97
2023-05-19T05:27:36.576Z,3.65
2023-05-19T05:30:11.504Z,3.78
2023-05-19T05:35:32.611Z,3.40
2023-05-19T05:38:06.527Z,5.60
2023-05-19T05:40:41.695Z,7.32
2023-05-19T05:43:15.758Z,6.15
2023-05-19T05:45:54.795Z,8.77
2023-05-19T05:48:28.576Z,5.25
2023-05-19T05:51:02.398Z,5.53
2023-05-19T05:53:43.990Z,3.90
2023-05-19T05:56:21.031Z,4.07
2023-05-19T05:58:58.017Z,6.57
2023-05-19T06:01:33.579Z,8.00
2023-05-19T06:04:08.262Z,4.10
2023-05-19T06:06:41.604Z,4.07
2023-05-19T06:11:51.428Z,3.20
2023-05-19T06:14:25.102Z,5.55
2023-05-19T06:17:17.212Z,5.00
2023-05-19T06:19:50.494Z,4.50
2023-05-19T06:22:23.821Z,5.55
2023-05-19T06:24:57.183Z,8.68
2023-05-19T06:27:34.533Z,5.70
2023-05-19T06:30:09.860Z,4.45
2023-05-19T06:32:53.762Z,3.45
2023-05-19T06:35:27.155Z,3.13
2023-05-19T06:38:00.391Z,3.90
2023-05-19T06:40:34.006Z,2.00
2023-05-19T06:43:08.866Z,4.30
2023-05-19T06:45:59.202Z,1.95
2023-05-19T06:48:32.789Z,3.42
2023-05-19T06:51:06.603Z,5.22
2023-05-19T06:53:40.978Z,4.75
2023-05-19T06:56:16.600Z,3.25
2023-05-19T06:58:51.302Z,1.80
2023-05-19T07:01:27.826Z,4.15
2023-05-19T07:04:02.319Z,5.35
2023-05-19T07:06:36.344Z,3.83
2023-05-19T07:09:09.616Z,5.43
2023-05-19T07:11:44.863Z,7.93
2023-05-19T07:14:20.860Z,7.15
2023-05-19T07:16:54.684Z,2.38
2023-05-19T07:19:28.458Z,3.38
2023-05-19T07:22:01.946Z,5.53
2023-05-19T07:24:35.296Z,6.53
2023-05-19T07:27:08.563Z,4.75
2023-05-19T07:29:43.262Z,2.78
2023-05-19T07:32:16.681Z,9.07
2023-05-19T07:34:49.994Z,4.22
2023-05-19T07:37:23.254Z,7.03
2023-05-19T07:39:56.543Z,5.10
2023-05-19T07:42:29.788Z,6.60
2023-05-19T07:45:04.591Z,7.68
2023-05-19T07:47:38.484Z,3.65
2023-05-19T07:50:11.781Z,5.47
2023-05-19T07:52:45.083Z,2.67
2023-05-19T07:55:19.248Z,5.55
2023-05-19T07:57:52.620Z,3.97
2023-05-19T08:00:27.750Z,3.65
2023-05-19T08:03:01.761Z,2.60
2023-05-19T08:05:36.418Z,4.60
2023-05-19T08:08:09.949Z,4.07
2023-05-19T08:10:43.407Z,3.65
2023-05-19T08:13:16.763Z,6.70
2023-05-19T08:15:51.371Z,5.80
2023-05-19T08:18:24.650Z,7.28
2023-05-19T08:20:57.977Z,2.83
2023-05-19T08:23:31.199Z,8.10
2023-05-19T08:26:04.526Z,7.30
2023-05-19T08:28:37.726Z,3.13
2023-05-19T08:31:12.385Z,5.07
2023-05-19T08:33:46.200Z,5.82
2023-05-19T08:36:19.720Z,3.97
2023-05-19T08:38:53.011Z,2.58
2023-05-19T08:41:26.411Z,3.55
2023-05-19T08:44:00.260Z,5.78
2023-05-19T08:51:50.686Z,11.60
2023-05-19T08:54:31.135Z,3.00
2023-05-19T08:57:05.631Z,5.68
2023-05-19T08:59:39.139Z,4.38
2023-05-19T09:02:15.124Z,5.20
2023-05-19T09:04:49.013Z,4.93
2023-05-19T09:07:25.526Z,4.18
2023-05-19T09:09:59.591Z,4.00
2023-05-19T09:12:32.897Z,8.32
2023-05-19T09:15:08.088Z,12.27
2023-05-19T09:17:44.820Z,3.60
2023-05-19T09:20:18.683Z,5.90
2023-05-19T09:25:26.364Z,9.73
2023-05-19T09:27:59.609Z,5.53
2023-05-19T09:30:34.300Z,3.47
2023-05-19T09:33:10.120Z,6.03
2023-05-19T09:35:48.422Z,7.18
2023-05-19T09:38:21.722Z,4.80
2023-05-19T09:40:57.641Z,7.75
2023-05-19T09:43:33.477Z,3.35
2023-05-19T09:46:08.483Z,3.47
2023-05-19T09:48:43.877Z,7.15
2023-05-19T09:51:17.562Z,7.72
2023-05-19T09:53:51.525Z,5.32
2023-05-19T09:56:26.141Z,4.95
2023-05-19T09:58:59.613Z,8.75
2023-05-19T10:01:36.281Z,8.30
2023-05-19T10:04:11.262Z,18.77
2023-05-19T10:06:46.169Z,12.80
2023-05-19T10:09:19.722Z,22.63
2023-05-19T10:11:54.296Z,14.20
2023-05-19T10:14:29.275Z,8.07
2023-05-19T10:17:02.762Z,10.68
2023-05-19T10:19:38.292Z,14.85
2023-05-19T10:22:11.612Z,20.23
2023-05-19T10:24:44.967Z,10.05
2023-05-19T10:27:19.378Z,10.02
2023-05-19T10:29:54.020Z,9.27
2023-05-19T10:32:30.500Z,10.43
2023-05-19T10:35:38.802Z,12.68
2023-05-19T10:38:20.657Z,8.80
2023-05-19T10:41:02.151Z,9.27
2023-05-19T10:43:50.450Z,13.52
2023-05-19T10:46:25.937Z,14.75
2023-05-19T10:48:59.449Z,11.02
2023-05-19T10:51:36.112Z,11.77
2023-05-19T10:54:12.065Z,14.68
2023-05-19T10:56:47.573Z,11.43
2023-05-19T10:59:33.260Z,11.35
2023-05-19T11:02:07.127Z,9.23
2023-05-19T11:04:49.585Z,10.55
2023-05-19T11:07:26.553Z,8.45
2023-05-19T11:09:59.896Z,8.13
2023-05-19T11:12:41.797Z,8.35
2023-05-19T11:15:16.035Z,9.68
2023-05-19T11:17:50.355Z,5.93
2023-05-19T11:20:24.856Z,14.80
2023-05-19T11:23:09.906Z,9.15
2023-05-19T11:25:48.175Z,9.73
2023-05-19T11:28:25.852Z,13.40
2023-05-19T11:31:00.157Z,10.68
2023-05-19T11:33:34.192Z,10.35
2023-05-19T11:36:07.883Z,13.55
2023-05-19T11:38:43.690Z,8.90
2023-05-19T11:41:18.894Z,10.02
2023-05-19T11:43:54.249Z,8.85
2023-05-19T11:46:27.624Z,8.18
2023-05-19T11:49:02.326Z,7.15
2023-05-19T11:51:35.669Z,8.95
2023-05-19T11:56:44.631Z,6.28
2023-05-19T11:59:18.095Z,9.05
2023-05-19T12:01:52.534Z,16.17
2023-05-19T12:04:25.770Z,13.45
2023-05-19T12:06:59.202Z,8.63
2023-05-19T12:09:33.972Z,8.13
2023-05-19T12:12:07.553Z,12.82
2023-05-19T12:14:41.276Z,10.70
2023-05-19T12:17:15.703Z,8.35
2023-05-19T12:19:50.085Z,9.88
2023-05-19T12:22:23.597Z,5.78
2023-05-19T12:24:58.639Z,10.00
2023-05-19T12:27:33.040Z,8.63
2023-05-19T12:30:09.755Z,18.08
2023-05-19T12:32:44.277Z,7.53
2023-05-19T12:35:17.854Z,14.65
2023-05-19T12:37:51.458Z,9.52
2023-05-19T12:40:26.664Z,6.68
2023-05-19T12:43:00.127Z,13.38
2023-05-19T12:45:36.192Z,15.85
2023-05-19T12:48:15.895Z,10.85
2023-05-19T12:50:49.656Z,8.55
2023-05-19T12:53:23.093Z,11.82
2023-05-19T12:55:57.789Z,8.48
2023-05-19T12:58:34.874Z,11.98
2023-05-19T13:01:09.235Z,10.50
2023-05-19T13:03:43.018Z,6.85
2023-05-19T13:08:49.662Z,10.38
2023-05-19T13:11:24.307Z,14.48
2023-05-19T13:13:57.684Z,9.07
2023-05-19T13:16:30.929Z,7.32
2023-05-19T13:19:06.249Z,9.93
2023-05-19T13:21:39.756Z,12.32
2023-05-19T13:24:12.997Z,7.78
2023-05-19T13:26:48.219Z,6.70
2023-05-19T13:29:21.544Z,8.85
2023-05-19T13:32:00.523Z,7.68
2023-05-19T13:34:34.636Z,6.30
2023-05-19T13:37:10.048Z,6.97
2023-05-19T13:39:43.423Z,9.85
2023-05-19T13:42:18.464Z,11.02
2023-05-19T13:44:55.037Z,11.65
2023-05-19T13:47:28.593Z,7.57
2023-05-19T13:50:02.321Z,11.35
2023-05-19T13:52:35.705Z,10.30
2023-05-19T13:55:10.068Z,10.00
2023-05-19T13:57:44.927Z,10.65
2023-05-19T14:00:19.435Z,10.43
2023-05-19T14:02:52.860Z,11.48
2023-05-19T14:05:28.369Z,16.80
2023-05-19T14:08:03.677Z,8.20
2023-05-19T14:10:37.008Z,7.57
2023-05-19T14:13:31.005Z,9.18
2023-05-19T14:16:06.769Z,11.98
2023-05-19T14:18:40.124Z,11.85
2023-05-19T14:21:13.424Z,11.60
2023-05-19T14:23:46.707Z,7.45
2023-05-19T14:26:22.012Z,7.32
2023-05-19T14:28:57.900Z,5.78
2023-05-19T14:31:31.220Z,5.88
2023-05-19T14:34:05.201Z,9.35
2023-05-19T14:39:11.968Z,8.13
2023-05-19T14:41:45.306Z,6.40
2023-05-19T14:44:20.106Z,6.15
2023-05-19T14:46:53.490Z,7.10
2023-05-19T14:49:26.830Z,7.35
2023-05-19T14:52:00.162Z,5.82
2023-05-19T14:54:33.903Z,4.85
2023-05-19T14:59:42.930Z,5.53
2023-05-19T15:02:16.273Z,6.07
2023-05-19T15:04:49.721Z,4.28
2023-05-19T15:07:24.627Z,3.92
2023-05-19T15:09:57.975Z,5.22
2023-05-19T15:12:31.531Z,4.35
2023-05-19T15:15:07.641Z,4.05
2023-05-19T15:17:41.276Z,4.25
2023-05-19T15:20:14.644Z,6.45
2023-05-19T15:22:48.111Z,8.07
2023-05-19T15:25:21.458Z,7.72
2023-05-19T15:27:54.736Z,5.13
2023-05-19T15:30:29.406Z,8.02
2023-05-19T15:33:02.824Z,7.28
2023-05-19T15:35:36.261Z,9.32
2023-05-19T15:38:09.572Z,10.57
2023-05-19T15:40:43.627Z,8.77
2023-05-19T15:43:17.525Z,8.05
2023-05-19T15:45:55.010Z,6.15
2023-05-19T15:48:29.166Z,6.55
2023-05-19T15:51:02.534Z,13.02
2023-05-19T15:53:36.422Z,7.55
2023-05-19T15:56:09.727Z,9.20
2023-05-19T15:58:43.507Z,6.85
2023-05-19T16:03:52.050Z,5.47
2023-05-19T16:06:27.600Z,5.95
2023-05-19T16:09:00.865Z,5.40
2023-05-19T16:11:34.326Z,5.75
2023-05-19T16:14:07.649Z,5.53
2023-05-19T16:16:42.476Z,4.38
2023-05-19T16:19:15.904Z,7.55
2023-05-19T16:21:49.225Z,7.57
2023-05-19T16:24:22.549Z,4.38
2023-05-19T16:26:56.249Z,6.45
2023-05-19T16:29:29.491Z,6.38
2023-05-19T16:32:06.092Z,5.07
2023-05-19T16:34:39.402Z,6.28
2023-05-19T16:37:12.678Z,9.38
2023-05-19T16:39:48.357Z,4.57
2023-05-19T16:42:21.747Z,6.63
2023-05-19T16:44:55.279Z,5.22
2023-05-19T16:47:37.386Z,7.85
2023-05-19T16:50:12.925Z,5.85
2023-05-19T16:52:46.571Z,6.65
2023-05-19T16:55:20.315Z,7.25
2023-05-19T16:57:53.689Z,7.90
2023-05-19T17:00:28.849Z,8.98
2023-05-19T17:03:04.684Z,8.65
2023-05-19T17:05:39.101Z,9.70
2023-05-19T17:08:13.069Z,7.88
2023-05-19T17:10:46.378Z,6.22
2023-05-19T17:13:19.634Z,8.50
2023-05-19T17:15:53.570Z,8.98
2023-05-19T17:18:28.308Z,7.18
2023-05-19T17:21:04.052Z,6.85
2023-05-19T17:23:37.905Z,7.20
2023-05-19T17:28:44.487Z,12.18
2023-05-19T17:31:17.717Z,7.60
2023-05-19T17:33:52.375Z,5.38
2023-05-19T17:36:26.309Z,7.88
2023-05-19T17:41:33.240Z,11.07
2023-05-19T17:44:07.262Z,4.38
2023-05-19T17:46:40.699Z,8.18
2023-05-19T17:49:15.430Z,7.93
2023-05-19T17:51:48.898Z,8.10
2023-05-19T17:54:23.216Z,9.20
2023-05-19T17:56:59.443Z,6.43
2023-05-19T17:59:33.542Z,10.35
2023-05-19T18:02:08.411Z,15.75
2023-05-19T18:04:44.560Z,13.18
2023-05-19T18:07:19.394Z,8.90
2023-05-19T18:09:53.274Z,9.00
2023-05-19T18:14:59.804Z,7.90
2023-05-19T18:17:33.154Z,9.95
2023-05-19T18:20:09.341Z,16.42
2023-05-19T18:22:42.677Z,12.73
2023-05-19T18:25:17.006Z,10.75
2023-05-19T18:27:50.540Z,14.90
2023-05-19T18:30:24.209Z,9.30
2023-05-19T18:32:57.737Z,9.02
2023-05-19T18:35:32.419Z,6.20
2023-05-19T18:38:05.877Z,6.03
2023-05-19T18:40:39.603Z,10.98
2023-05-19T18:45:48.173Z,6.75
2023-05-19T18:48:22.564Z,9.23
2023-05-19T18:50:57.397Z,8.52
2023-05-19T18:53:34.034Z,9.27
2023-05-19T18:56:08.421Z,8.43
2023-05-19T18:58:41.832Z,8.73
2023-05-19T19:01:16.374Z,13.65
2023-05-19T19:03:49.998Z,7.63
2023-05-19T19:06:25.022Z,6.25
2023-05-19T19:08:58.343Z,7.93
2023-05-19T19:11:31.932Z,6.70
2023-05-19T19:14:05.233Z,10.45
2023-05-19T19:16:38.870Z,6.03
2023-05-19T19:19:12.219Z,5.78
2023-05-19T19:21:46.852Z,9.77
2023-05-19T19:24:20.059Z,7.53
2023-05-19T19:26:53.341Z,7.05
2023-05-19T19:29:26.695Z,7.68
2023-05-19T19:31:59.995Z,5.68
2023-05-19T19:34:33.261Z,6.22
2023-05-19T19:37:07.843Z,5.63
2023-05-19T19:39:41.138Z,6.43
2023-05-19T19:42:14.458Z,5.60
2023-05-19T19:44:47.702Z,8.48
2023-05-19T19:47:20.998Z,8.50
2023-05-19T19:49:54.304Z,6.80
2023-05-19T19:52:28.944Z,12.05
2023-05-19T19:55:02.248Z,6.85
2023-05-19T19:57:35.700Z,8.50
2023-05-19T20:00:10.272Z,6.78
2023-05-19T20:03:03.027Z,6.43
2023-05-19T20:05:39.501Z,6.22
2023-05-19T20:08:15.393Z,8.50
2023-05-19T20:10:49.336Z,8.77
2023-05-19T20:13:22.574Z,8.13
2023-05-19T20:15:55.804Z,8.70
2023-05-19T20:18:29.892Z,9.15
2023-05-19T20:21:03.343Z,13.80
2023-05-19T20:23:38.847Z,6.70
2023-05-19T20:26:13.447Z,6.85
2023-05-19T20:28:47.052Z,9.20
2023-05-19T20:31:21.525Z,10.20
2023-05-19T20:33:54.804Z,6.80
2023-05-19T20:36:28.100Z,11.27
2023-05-19T20:39:03.722Z,5.97
2023-05-19T20:41:37.345Z,8.10
2023-05-19T20:44:11.771Z,9.60
2023-05-19T20:46:45.057Z,7.28
2023-05-19T20:49:18.426Z,6.38
2023-05-19T20:51:51.679Z,6.57
2023-05-19T20:54:26.504Z,7.60
2023-05-19T20:56:59.829Z,7.38
2023-05-19T20:59:33.119Z,6.78
2023-05-19T21:02:07.620Z,7.53
2023-05-19T21:04:41.072Z,7.93
2023-05-19T21:07:14.429Z,6.32
2023-05-19T21:09:51.392Z,9.10
2023-05-19T21:12:25.293Z,6.55
2023-05-19T21:14:58.596Z,6.35
2023-05-19T21:17:31.980Z,6.80
2023-05-19T21:20:06.492Z,8.18
2023-05-19T21:22:40.893Z,10.07
2023-05-19T21:25:17.031Z,10.73
2023-05-19T21:27:51.030Z,10.15
2023-05-19T21:30:24.290Z,8.75
2023-05-19T21:32:57.567Z,11.25
2023-05-19T21:35:31.020Z,9.55
2023-05-19T21:38:15.711Z,7.03
2023-05-19T21:40:57.757Z,8.57
2023-05-19T21:43:31.111Z,8.50
2023-05-19T21:46:04.511Z,8.82
2023-05-19T21:48:37.857Z,7.80
2023-05-19T21:51:11.153Z,10.48
2023-05-19T21:53:44.422Z,7.07
2023-05-19T21:56:18.999Z,8.00
2023-05-19T21:58:52.282Z,9.55
2023-05-19T22:01:25.849Z,12.30
2023-05-19T22:03:59.209Z,6.55
2023-05-19T22:06:33.606Z,8.38
2023-05-19T22:09:06.888Z,5.53
2023-05-19T22:11:41.780Z,6.43
2023-05-19T22:14:15.444Z,7.25
2023-05-19T22:16:48.725Z,7.35
2023-05-19T22:19:22.007Z,9.07
2023-05-19T22:22:01.775Z,7.63
2023-05-19T22:24:43.485Z,7.43
2023-05-19T22:27:18.085Z,8.32
2023-05-19T22:29:51.546Z,6.72
2023-05-19T22:32:24.813Z,6.32
2023-05-19T22:34:58.209Z,6.88
2023-05-19T22:37:31.600Z,6.75
2023-05-19T22:40:05.378Z,7.13
2023-05-19T22:45:13.694Z,6.20
2023-05-19T22:47:48.355Z,5.95
2023-05-19T22:50:21.838Z,7.97
2023-05-19T22:52:55.115Z,6.75
2023-05-19T22:55:28.418Z,7.60
2023-05-19T22:58:03.124Z,6.00
2023-05-19T23:00:36.428Z,6.30
2023-05-19T23:03:09.728Z,4.82
2023-05-19T23:05:43.794Z,5.68
2023-05-19T23:08:17.057Z,5.32
2023-05-19T23:10:51.038Z,5.15
2023-05-19T23:13:25.690Z,6.00
2023-05-19T23:15:58.971Z,7.28
2023-05-19T23:18:32.168Z,5.63
2023-05-19T23:21:05.414Z,5.75
2023-05-19T23:23:38.656Z,6.07
2023-05-19T23:26:13.373Z,6.25
2023-05-19T23:28:48.039Z,6.35
2023-05-19T23:31:21.271Z,5.38
2023-05-19T23:33:55.103Z,13.73
2023-05-19T23:36:28.483Z,5.55
2023-05-19T23:39:01.853Z,9.63
2023-05-19T23:41:35.156Z,5.70
2023-05-19T23:44:09.882Z,4.95
2023-05-19T23:46:43.246Z,6.60
2023-05-19T23:49:16.521Z,4.65
2023-05-19T23:51:49.804Z,5.88
2023-05-19T23:54:23.065Z,8.07
2023-05-19T23:56:56.397Z,9.05
2023-05-19T23:59:30.981Z,5.65
